LF3825 weather

Altiport du Col de Sarenne
Clavans-le-Haut, Rhône Alpes, France

Public forecast

Using degrees Celsius for public forecast. Weather courtesy of forecast.io.

METAR (pilot weather report)

Closest report is Chambéry-Savoie Airport, 34.9 nm (64.6 km) NNW. Retrieved 2019/09/18 02:30 UTC (0 seconds ago):

LFLB 180230Z AUTO 02004KT 330V080 CAVOK 16/14 Q1017 NOSIG

TAF (pilot weather forecast)

Forecast is more than 12 hours old.

Closest forecast is Chambéry-Savoie Airport, 34.9 nm (64.6 km) NNW. Retrieved 2019/09/17 00:45 UTC (1 day ago):

TAF LFLB 172300Z 1800/1824 VRB02KT CAVOK BECMG 1805/1809 36012KT